sensor_id;sensor_type;location;lat;lon;timestamp;pressure;altitude;pressure_sealevel;temperature;humidity
61898;BME280;47850;50.274;18.908;2023-07-20T00:00:29;97346.95;;;19.44;59.04
61898;BME280;47850;50.274;18.908;2023-07-20T00:03:29;97354.55;;;19.38;59.92
61898;BME280;47850;50.274;18.908;2023-07-20T00:05:57;97359.38;;;19.33;60.78
61898;BME280;47850;50.274;18.908;2023-07-20T00:08:25;97366.09;;;19.27;61.83
61898;BME280;47850;50.274;18.908;2023-07-20T00:10:53;97374.17;;;19.17;63.14
61898;BME280;47850;50.274;18.908;2023-07-20T00:13:21;97402.75;;;19.07;64.63
61898;BME280;47850;50.274;18.908;2023-07-20T00:15:48;97415.23;;;18.98;65.32
61898;BME280;47850;50.274;18.908;2023-07-20T00:18:17;97421.98;;;18.90;63.64
61898;BME280;47850;50.274;18.908;2023-07-20T00:20:45;97425.60;;;18.86;62.95
61898;BME280;47850;50.274;18.908;2023-07-20T00:23:12;97434.19;;;18.81;62.30
61898;BME280;47850;50.274;18.908;2023-07-20T00:25:40;97434.73;;;18.76;62.29
61898;BME280;47850;50.274;18.908;2023-07-20T00:28:08;97434.40;;;18.71;62.14
61898;BME280;47850;50.274;18.908;2023-07-20T00:30:38;97439.55;;;18.69;62.28
61898;BME280;47850;50.274;18.908;2023-07-20T00:33:11;97447.91;;;18.71;62.70
61898;BME280;47850;50.274;18.908;2023-07-20T00:35:39;97457.50;;;18.63;63.82
61898;BME280;47850;50.274;18.908;2023-07-20T00:38:07;97463.71;;;18.52;65.01
61898;BME280;47850;50.274;18.908;2023-07-20T00:40:38;97459.73;;;18.40;65.80
61898;BME280;47850;50.274;18.908;2023-07-20T00:43:07;97464.50;;;18.31;66.55
61898;BME280;47850;50.274;18.908;2023-07-20T00:45:36;97468.50;;;18.24;67.04
61898;BME280;47850;50.274;18.908;2023-07-20T00:48:04;97462.86;;;18.18;67.35
61898;BME280;47850;50.274;18.908;2023-07-20T00:50:34;97469.55;;;18.11;67.93
61898;BME280;47850;50.274;18.908;2023-07-20T00:53:03;97471.49;;;18.05;68.29
61898;BME280;47850;50.274;18.908;2023-07-20T00:55:32;97468.46;;;18.01;68.90
61898;BME280;47850;50.274;18.908;2023-07-20T00:58:00;97461.80;;;17.94;69.10
61898;BME280;47850;50.274;18.908;2023-07-20T01:00:28;97459.79;;;17.90;69.81
61898;BME280;47850;50.274;18.908;2023-07-20T01:02:56;97457.73;;;17.86;69.57
61898;BME280;47850;50.274;18.908;2023-07-20T01:05:32;97459.50;;;17.83;70.54
61898;BME280;47850;50.274;18.908;2023-07-20T01:08:40;97449.38;;;17.73;71.32
61898;BME280;47850;50.274;18.908;2023-07-20T01:11:15;97423.35;;;17.65;72.45
61898;BME280;47850;50.274;18.908;2023-07-20T01:13:44;97408.70;;;17.65;72.91
61898;BME280;47850;50.274;18.908;2023-07-20T01:16:12;97409.46;;;17.65;72.83
61898;BME280;47850;50.274;18.908;2023-07-20T01:18:40;97416.86;;;17.64;73.22
61898;BME280;47850;50.274;18.908;2023-07-20T01:21:12;97412.22;;;17.63;73.11
61898;BME280;47850;50.274;18.908;2023-07-20T01:26:52;97396.54;;;17.63;73.08
61898;BME280;47850;50.274;18.908;2023-07-20T01:32:32;97400.71;;;17.63;73.09
61898;BME280;47850;50.274;18.908;2023-07-20T01:35:01;97405.79;;;17.56;72.88
61898;BME280;47850;50.274;18.908;2023-07-20T01:37:30;97410.09;;;17.49;72.82
61898;BME280;47850;50.274;18.908;2023-07-20T01:39:59;97408.23;;;17.44;72.57
61898;BME280;47850;50.274;18.908;2023-07-20T01:42:27;97405.48;;;17.43;71.91
61898;BME280;47850;50.274;18.908;2023-07-20T01:44:55;97404.38;;;17.45;71.60
61898;BME280;47850;50.274;18.908;2023-07-20T01:47:23;97404.30;;;17.47;71.65
61898;BME280;47850;50.274;18.908;2023-07-20T01:49:50;97414.56;;;17.50;71.49
61898;BME280;47850;50.274;18.908;2023-07-20T01:52:18;97418.50;;;17.49;71.51
61898;BME280;47850;50.274;18.908;2023-07-20T01:54:46;97430.39;;;17.50;71.40
61898;BME280;47850;50.274;18.908;2023-07-20T01:57:14;97428.48;;;17.47;71.30
61898;BME280;47850;50.274;18.908;2023-07-20T01:59:41;97432.98;;;17.47;71.10
61898;BME280;47850;50.274;18.908;2023-07-20T02:02:09;97433.13;;;17.46;71.09
61898;BME280;47850;50.274;18.908;2023-07-20T02:04:37;97442.02;;;17.43;71.22
61898;BME280;47850;50.274;18.908;2023-07-20T02:07:05;97444.82;;;17.38;71.28
61898;BME280;47850;50.274;18.908;2023-07-20T02:09:32;97447.61;;;17.33;71.22
61898;BME280;47850;50.274;18.908;2023-07-20T02:12:00;97430.11;;;17.29;71.59
61898;BME280;47850;50.274;18.908;2023-07-20T02:14:28;97431.07;;;17.23;72.80
61898;BME280;47850;50.274;18.908;2023-07-20T02:16:56;97433.66;;;17.13;73.34
61898;BME280;47850;50.274;18.908;2023-07-20T02:19:25;97440.38;;;17.05;73.77
61898;BME280;47850;50.274;18.908;2023-07-20T02:21:54;97449.22;;;16.99;74.28
61898;BME280;47850;50.274;18.908;2023-07-20T02:24:22;97461.76;;;16.88;74.62
61898;BME280;47850;50.274;18.908;2023-07-20T02:26:49;97468.15;;;16.83;75.16
61898;BME280;47850;50.274;18.908;2023-07-20T02:29:17;97463.71;;;16.79;74.89
61898;BME280;47850;50.274;18.908;2023-07-20T02:31:45;97472.95;;;16.77;75.12
61898;BME280;47850;50.274;18.908;2023-07-20T02:34:12;97470.98;;;16.77;75.91
61898;BME280;47850;50.274;18.908;2023-07-20T02:36:41;97462.95;;;16.75;76.60
61898;BME280;47850;50.274;18.908;2023-07-20T02:39:10;97471.54;;;16.68;76.79
61898;BME280;47850;50.274;18.908;2023-07-20T02:41:37;97467.85;;;16.61;76.95
61898;BME280;47850;50.274;18.908;2023-07-20T02:44:05;97471.48;;;16.55;77.12
61898;BME280;47850;50.274;18.908;2023-07-20T02:46:33;97461.44;;;16.50;77.51
61898;BME280;47850;50.274;18.908;2023-07-20T02:49:02;97457.52;;;16.45;77.44
61898;BME280;47850;50.274;18.908;2023-07-20T02:51:30;97461.07;;;16.38;77.98
61898;BME280;47850;50.274;18.908;2023-07-20T02:53:58;97474.13;;;16.32;78.04
61898;BME280;47850;50.274;18.908;2023-07-20T02:56:26;97474.75;;;16.25;77.94
61898;BME280;47850;50.274;18.908;2023-07-20T02:58:54;97474.61;;;16.20;78.01
61898;BME280;47850;50.274;18.908;2023-07-20T03:01:22;97472.42;;;16.15;77.96
61898;BME280;47850;50.274;18.908;2023-07-20T03:03:50;97471.75;;;16.12;78.16
61898;BME280;47850;50.274;18.908;2023-07-20T03:06:18;97479.11;;;16.09;78.40
61898;BME280;47850;50.274;18.908;2023-07-20T03:08:45;97479.55;;;16.07;78.55
61898;BME280;47850;50.274;18.908;2023-07-20T03:11:16;97486.17;;;16.03;78.69
61898;BME280;47850;50.274;18.908;2023-07-20T03:13:44;97486.77;;;16.00;78.57
61898;BME280;47850;50.274;18.908;2023-07-20T03:16:18;97484.69;;;15.97;78.89
61898;BME280;47850;50.274;18.908;2023-07-20T03:18:46;97498.23;;;15.94;79.30
61898;BME280;47850;50.274;18.908;2023-07-20T03:21:14;97502.27;;;15.91;79.23
61898;BME280;47850;50.274;18.908;2023-07-20T03:23:42;97504.36;;;15.89;79.46
61898;BME280;47850;50.274;18.908;2023-07-20T03:26:09;97508.98;;;15.87;79.62
61898;BME280;47850;50.274;18.908;2023-07-20T03:28:38;97515.88;;;15.87;79.57
61898;BME280;47850;50.274;18.908;2023-07-20T03:31:06;97519.45;;;15.89;79.75
61898;BME280;47850;50.274;18.908;2023-07-20T03:33:34;97528.34;;;15.90;79.76
61898;BME280;47850;50.274;18.908;2023-07-20T03:36:02;97522.27;;;15.88;79.89
61898;BME280;47850;50.274;18.908;2023-07-20T03:38:30;97521.56;;;15.89;79.84
61898;BME280;47850;50.274;18.908;2023-07-20T03:40:59;97530.13;;;15.90;79.99
61898;BME280;47850;50.274;18.908;2023-07-20T03:43:28;97533.28;;;15.90;79.97
61898;BME280;47850;50.274;18.908;2023-07-20T03:45:56;97515.80;;;15.92;79.97
61898;BME280;47850;50.274;18.908;2023-07-20T03:48:26;97508.43;;;15.93;79.95
61898;BME280;47850;50.274;18.908;2023-07-20T03:50:55;97527.69;;;15.93;79.95
61898;BME280;47850;50.274;18.908;2023-07-20T03:53:22;97528.76;;;15.92;80.35
61898;BME280;47850;50.274;18.908;2023-07-20T03:55:51;97522.27;;;15.89;80.29
61898;BME280;47850;50.274;18.908;2023-07-20T03:58:20;97503.91;;;15.90;80.61
61898;BME280;47850;50.274;18.908;2023-07-20T04:00:50;97497.42;;;15.93;80.14
61898;BME280;47850;50.274;18.908;2023-07-20T04:03:19;97508.55;;;15.95;80.59
61898;BME280;47850;50.274;18.908;2023-07-20T04:05:47;97527.98;;;15.98;80.83
61898;BME280;47850;50.274;18.908;2023-07-20T04:08:15;97534.36;;;15.99;80.75
61898;BME280;47850;50.274;18.908;2023-07-20T04:10:43;97544.20;;;16.01;80.60
61898;BME280;47850;50.274;18.908;2023-07-20T04:13:12;97535.33;;;16.01;80.61
61898;BME280;47850;50.274;18.908;2023-07-20T04:15:39;97521.72;;;15.99;80.60
61898;BME280;47850;50.274;18.908;2023-07-20T04:18:07;97534.94;;;16.01;80.73
61898;BME280;47850;50.274;18.908;2023-07-20T04:20:35;97538.36;;;16.04;80.65
61898;BME280;47850;50.274;18.908;2023-07-20T04:23:03;97544.63;;;16.08;80.44
61898;BME280;47850;50.274;18.908;2023-07-20T04:25:30;97536.52;;;16.12;80.52
61898;BME280;47850;50.274;18.908;2023-07-20T04:28:09;97527.90;;;16.20;80.84
61898;BME280;47850;50.274;18.908;2023-07-20T04:30:38;97513.04;;;16.26;80.97
61898;BME280;47850;50.274;18.908;2023-07-20T04:33:07;97517.95;;;16.29;81.03
61898;BME280;47850;50.274;18.908;2023-07-20T04:35:49;97514.09;;;16.29;80.73
61898;BME280;47850;50.274;18.908;2023-07-20T04:38:17;97520.77;;;16.28;80.88
61898;BME280;47850;50.274;18.908;2023-07-20T04:40:47;97526.21;;;16.30;81.16
61898;BME280;47850;50.274;18.908;2023-07-20T04:43:16;97536.95;;;16.28;81.25
61898;BME280;47850;50.274;18.908;2023-07-20T04:45:44;97534.11;;;16.27;81.26
61898;BME280;47850;50.274;18.908;2023-07-20T04:48:14;97538.11;;;16.26;81.14
61898;BME280;47850;50.274;18.908;2023-07-20T04:50:45;97546.38;;;16.27;80.94
61898;BME280;47850;50.274;18.908;2023-07-20T04:53:13;97545.23;;;16.30;80.95
61898;BME280;47850;50.274;18.908;2023-07-20T04:55:48;97548.24;;;16.37;81.07
61898;BME280;47850;50.274;18.908;2023-07-20T04:58:19;97544.73;;;16.46;80.57
61898;BME280;47850;50.274;18.908;2023-07-20T05:00:50;97546.64;;;16.54;80.22
61898;BME280;47850;50.274;18.908;2023-07-20T05:03:18;97551.91;;;16.61;80.31
61898;BME280;47850;50.274;18.908;2023-07-20T05:05:47;97556.71;;;16.68;79.97
61898;BME280;47850;50.274;18.908;2023-07-20T05:08:16;97567.91;;;16.76;80.13
61898;BME280;47850;50.274;18.908;2023-07-20T05:10:43;97572.27;;;16.80;79.65
61898;BME280;47850;50.274;18.908;2023-07-20T05:13:11;97572.11;;;16.86;79.57
61898;BME280;47850;50.274;18.908;2023-07-20T05:15:39;97576.29;;;16.92;79.41
61898;BME280;47850;50.274;18.908;2023-07-20T05:18:07;97583.21;;;16.98;79.23
61898;BME280;47850;50.274;18.908;2023-07-20T05:20:35;97582.29;;;17.07;78.87
61898;BME280;47850;50.274;18.908;2023-07-20T05:23:03;97587.39;;;17.20;78.70
61898;BME280;47850;50.274;18.908;2023-07-20T05:25:31;97592.33;;;17.27;78.41
61898;BME280;47850;50.274;18.908;2023-07-20T05:27:58;97594.16;;;17.29;77.95
61898;BME280;47850;50.274;18.908;2023-07-20T05:30:26;97595.36;;;17.24;77.93
61898;BME280;47850;50.274;18.908;2023-07-20T05:32:56;97595.02;;;17.14;78.12
61898;BME280;47850;50.274;18.908;2023-07-20T05:35:25;97596.00;;;17.02;78.33
61898;BME280;47850;50.274;18.908;2023-07-20T05:37:53;97592.73;;;16.98;78.40
61898;BME280;47850;50.274;18.908;2023-07-20T05:40:21;97592.11;;;16.99;78.57
61898;BME280;47850;50.274;18.908;2023-07-20T05:42:49;97590.83;;;16.98;78.91
61898;BME280;47850;50.274;18.908;2023-07-20T05:45:19;97588.52;;;16.95;79.16
61898;BME280;47850;50.274;18.908;2023-07-20T05:47:47;97593.02;;;16.91;79.41
61898;BME280;47850;50.274;18.908;2023-07-20T05:50:15;97597.22;;;16.87;79.70
61898;BME280;47850;50.274;18.908;2023-07-20T05:52:43;97597.48;;;16.88;79.99
61898;BME280;47850;50.274;18.908;2023-07-20T05:55:12;97602.46;;;16.96;79.93
61898;BME280;47850;50.274;18.908;2023-07-20T05:57:39;97601.79;;;17.05;79.35
61898;BME280;47850;50.274;18.908;2023-07-20T06:00:10;97603.06;;;17.14;79.17
61898;BME280;47850;50.274;18.908;2023-07-20T06:02:39;97605.95;;;17.27;78.56
61898;BME280;47850;50.274;18.908;2023-07-20T06:05:08;97613.48;;;17.41;78.43
61898;BME280;47850;50.274;18.908;2023-07-20T06:07:37;97613.44;;;17.60;78.19
61898;BME280;47850;50.274;18.908;2023-07-20T06:10:06;97614.23;;;17.71;77.43
61898;BME280;47850;50.274;18.908;2023-07-20T06:12:34;97608.46;;;17.78;77.00
61898;BME280;47850;50.274;18.908;2023-07-20T06:15:02;97609.20;;;17.80;76.03
61898;BME280;47850;50.274;18.908;2023-07-20T06:17:31;97606.34;;;17.78;75.65
61898;BME280;47850;50.274;18.908;2023-07-20T06:19:59;97603.75;;;17.80;75.00
61898;BME280;47850;50.274;18.908;2023-07-20T06:22:27;97596.48;;;17.87;74.99
61898;BME280;47850;50.274;18.908;2023-07-20T06:24:54;97597.96;;;18.01;74.53
61898;BME280;47850;50.274;18.908;2023-07-20T06:27:22;97596.25;;;18.15;74.03
61898;BME280;47850;50.274;18.908;2023-07-20T06:29:50;97598.55;;;18.32;73.47
61898;BME280;47850;50.274;18.908;2023-07-20T06:32:17;97601.77;;;18.43;72.64
61898;BME280;47850;50.274;18.908;2023-07-20T06:34:45;97610.67;;;18.54;72.84
61898;BME280;47850;50.274;18.908;2023-07-20T06:37:14;97613.12;;;18.70;71.99
61898;BME280;47850;50.274;18.908;2023-07-20T06:39:42;97612.34;;;18.88;70.65
61898;BME280;47850;50.274;18.908;2023-07-20T06:42:10;97614.20;;;18.97;69.86
61898;BME280;47850;50.274;18.908;2023-07-20T06:44:39;97615.99;;;19.10;69.29
61898;BME280;47850;50.274;18.908;2023-07-20T06:47:07;97620.11;;;19.16;69.31
61898;BME280;47850;50.274;18.908;2023-07-20T06:49:35;97617.92;;;19.19;67.62
61898;BME280;47850;50.274;18.908;2023-07-20T06:52:03;97623.05;;;19.20;66.61
61898;BME280;47850;50.274;18.908;2023-07-20T06:54:30;97625.89;;;19.18;67.25
61898;BME280;47850;50.274;18.908;2023-07-20T06:56:58;97620.83;;;19.17;66.94
61898;BME280;47850;50.274;18.908;2023-07-20T06:59:27;97620.85;;;19.22;66.31
61898;BME280;47850;50.274;18.908;2023-07-20T07:01:55;97619.05;;;19.29;66.65
61898;BME280;47850;50.274;18.908;2023-07-20T07:04:23;97617.08;;;19.31;66.53
61898;BME280;47850;50.274;18.908;2023-07-20T07:06:51;97619.37;;;19.31;66.51
61898;BME280;47850;50.274;18.908;2023-07-20T07:09:19;97620.79;;;19.29;65.43
61898;BME280;47850;50.274;18.908;2023-07-20T07:11:47;97619.05;;;19.32;65.02
61898;BME280;47850;50.274;18.908;2023-07-20T07:14:14;97617.64;;;19.36;65.03
61898;BME280;47850;50.274;18.908;2023-07-20T07:16:43;97624.77;;;19.43;65.43
61898;BME280;47850;50.274;18.908;2023-07-20T07:19:10;97622.06;;;19.35;64.85
61898;BME280;47850;50.274;18.908;2023-07-20T07:21:38;97626.38;;;19.21;65.14
61898;BME280;47850;50.274;18.908;2023-07-20T07:24:06;97626.44;;;19.18;65.27
61898;BME280;47850;50.274;18.908;2023-07-20T07:26:36;97627.65;;;19.24;65.01
61898;BME280;47850;50.274;18.908;2023-07-20T07:29:04;97629.09;;;19.34;64.40
61898;BME280;47850;50.274;18.908;2023-07-20T07:31:34;97629.80;;;19.41;64.24
61898;BME280;47850;50.274;18.908;2023-07-20T07:34:03;97630.88;;;19.53;64.47
61898;BME280;47850;50.274;18.908;2023-07-20T07:36:32;97630.33;;;19.70;63.06
61898;BME280;47850;50.274;18.908;2023-07-20T07:39:00;97629.95;;;19.79;62.28
61898;BME280;47850;50.274;18.908;2023-07-20T07:41:28;97639.86;;;19.87;62.68
61898;BME280;47850;50.274;18.908;2023-07-20T07:43:56;97645.08;;;20.01;62.27
61898;BME280;47850;50.274;18.908;2023-07-20T07:46:24;97643.41;;;20.20;61.33
61898;BME280;47850;50.274;18.908;2023-07-20T07:48:52;97643.64;;;20.31;60.59
61898;BME280;47850;50.274;18.908;2023-07-20T07:51:20;97645.23;;;20.18;59.78
61898;BME280;47850;50.274;18.908;2023-07-20T07:53:48;97647.14;;;19.99;59.74
61898;BME280;47850;50.274;18.908;2023-07-20T07:56:16;97641.61;;;19.93;60.25
61898;BME280;47850;50.274;18.908;2023-07-20T07:58:44;97646.11;;;20.01;60.82
61898;BME280;47850;50.274;18.908;2023-07-20T08:01:12;97641.77;;;20.17;60.96
61898;BME280;47850;50.274;18.908;2023-07-20T08:03:39;97644.89;;;20.40;61.11
61898;BME280;47850;50.274;18.908;2023-07-20T08:06:07;97645.95;;;20.68;60.51
61898;BME280;47850;50.274;18.908;2023-07-20T08:08:35;97645.29;;;20.86;59.81
61898;BME280;47850;50.274;18.908;2023-07-20T08:11:04;97650.54;;;21.01;59.44
61898;BME280;47850;50.274;18.908;2023-07-20T08:13:32;97646.38;;;21.12;59.15
61898;BME280;47850;50.274;18.908;2023-07-20T08:16:00;97654.27;;;21.15;58.51
61898;BME280;47850;50.274;18.908;2023-07-20T08:18:29;97656.94;;;21.04;58.48
61898;BME280;47850;50.274;18.908;2023-07-20T08:20:58;97658.56;;;20.95;59.16
61898;BME280;47850;50.274;18.908;2023-07-20T08:23:26;97662.85;;;20.91;59.39
61898;BME280;47850;50.274;18.908;2023-07-20T08:25:55;97660.59;;;20.80;59.70
61898;BME280;47850;50.274;18.908;2023-07-20T08:28:23;97657.27;;;20.75;59.77
61898;BME280;47850;50.274;18.908;2023-07-20T08:30:50;97660.98;;;20.74;59.45
61898;BME280;47850;50.274;18.908;2023-07-20T08:33:18;97660.11;;;20.77;59.80
61898;BME280;47850;50.274;18.908;2023-07-20T08:35:49;97657.39;;;20.88;59.42
61898;BME280;47850;50.274;18.908;2023-07-20T08:38:17;97651.11;;;20.95;59.16
61898;BME280;47850;50.274;18.908;2023-07-20T08:40:46;97657.90;;;21.03;58.95
61898;BME280;47850;50.274;18.908;2023-07-20T08:43:14;97660.88;;;21.10;58.90
61898;BME280;47850;50.274;18.908;2023-07-20T08:45:46;97665.18;;;21.21;58.69
61898;BME280;47850;50.274;18.908;2023-07-20T08:48:15;97665.70;;;21.28;58.97
61898;BME280;47850;50.274;18.908;2023-07-20T08:50:45;97669.80;;;21.33;58.38
61898;BME280;47850;50.274;18.908;2023-07-20T08:53:13;97669.80;;;21.52;58.31
61898;BME280;47850;50.274;18.908;2023-07-20T08:55:44;97665.13;;;21.79;57.76
61898;BME280;47850;50.274;18.908;2023-07-20T08:58:15;97675.14;;;21.99;56.94
61898;BME280;47850;50.274;18.908;2023-07-20T09:00:44;97675.61;;;21.99;55.34
61898;BME280;47850;50.274;18.908;2023-07-20T09:03:12;97676.90;;;21.96;55.63
61898;BME280;47850;50.274;18.908;2023-07-20T09:05:42;97672.60;;;21.88;55.60
61898;BME280;47850;50.274;18.908;2023-07-20T09:08:10;97677.16;;;21.69;56.03
61898;BME280;47850;50.274;18.908;2023-07-20T09:10:37;97673.49;;;21.55;56.90
61898;BME280;47850;50.274;18.908;2023-07-20T09:13:05;97669.85;;;21.60;57.14
61898;BME280;47850;50.274;18.908;2023-07-20T09:15:33;97672.30;;;21.72;57.03
61898;BME280;47850;50.274;18.908;2023-07-20T09:18:02;97666.73;;;21.87;56.18
61898;BME280;47850;50.274;18.908;2023-07-20T09:20:32;97665.86;;;22.00;55.89
61898;BME280;47850;50.274;18.908;2023-07-20T09:23:04;97672.38;;;22.17;55.11
61898;BME280;47850;50.274;18.908;2023-07-20T09:25:32;97667.64;;;22.23;54.30
61898;BME280;47850;50.274;18.908;2023-07-20T09:28:02;97671.02;;;22.26;54.46
61898;BME280;47850;50.274;18.908;2023-07-20T09:30:31;97671.00;;;22.31;53.89
61898;BME280;47850;50.274;18.908;2023-07-20T09:33:00;97675.89;;;22.24;54.20
61898;BME280;47850;50.274;18.908;2023-07-20T09:35:27;97671.98;;;21.96;54.81
61898;BME280;47850;50.274;18.908;2023-07-20T09:37:59;97671.95;;;21.65;55.80
61898;BME280;47850;50.274;18.908;2023-07-20T09:40:28;97669.73;;;21.31;56.87
61898;BME280;47850;50.274;18.908;2023-07-20T09:42:56;97671.17;;;21.10;57.88
61898;BME280;47850;50.274;18.908;2023-07-20T09:45:50;97676.35;;;21.05;58.20
61898;BME280;47850;50.274;18.908;2023-07-20T09:48:17;97673.84;;;21.16;58.78
61898;BME280;47850;50.274;18.908;2023-07-20T09:50:50;97675.11;;;21.33;58.71
61898;BME280;47850;50.274;18.908;2023-07-20T09:53:24;97678.82;;;21.51;57.46
61898;BME280;47850;50.274;18.908;2023-07-20T09:55:53;97673.04;;;21.68;57.82
61898;BME280;47850;50.274;18.908;2023-07-20T09:58:22;97679.69;;;21.94;56.66
61898;BME280;47850;50.274;18.908;2023-07-20T10:00:51;97670.70;;;22.08;56.20
61898;BME280;47850;50.274;18.908;2023-07-20T10:03:21;97673.45;;;22.22;55.44
61898;BME280;47850;50.274;18.908;2023-07-20T10:05:54;97668.02;;;22.33;54.90
61898;BME280;47850;50.274;18.908;2023-07-20T10:08:25;97662.73;;;22.52;54.29
61898;BME280;47850;50.274;18.908;2023-07-20T10:10:53;97666.14;;;22.67;54.63
61898;BME280;47850;50.274;18.908;2023-07-20T10:13:30;97672.13;;;22.81;53.92
61898;BME280;47850;50.274;18.908;2023-07-20T10:16:14;97673.35;;;22.85;52.06
61898;BME280;47850;50.274;18.908;2023-07-20T10:19:13;97677.92;;;22.95;50.94
61898;BME280;47850;50.274;18.908;2023-07-20T10:22:00;97676.02;;;23.01;50.25
61898;BME280;47850;50.274;18.908;2023-07-20T10:24:31;97678.08;;;23.17;50.66
61898;BME280;47850;50.274;18.908;2023-07-20T10:27:00;97674.17;;;23.37;50.37
61898;BME280;47850;50.274;18.908;2023-07-20T10:29:29;97677.23;;;23.53;49.07
61898;BME280;47850;50.274;18.908;2023-07-20T10:31:58;97669.27;;;23.59;49.11
61898;BME280;47850;50.274;18.908;2023-07-20T10:34:26;97667.36;;;23.76;48.91
61898;BME280;47850;50.274;18.908;2023-07-20T10:36:54;97671.68;;;23.90;47.56
61898;BME280;47850;50.274;18.908;2023-07-20T10:39:30;97665.15;;;23.90;47.06
61898;BME280;47850;50.274;18.908;2023-07-20T10:42:08;97659.36;;;24.01;47.54
61898;BME280;47850;50.274;18.908;2023-07-20T10:44:37;97656.17;;;24.21;47.45
61898;BME280;47850;50.274;18.908;2023-07-20T10:47:10;97657.67;;;24.16;46.86
61898;BME280;47850;50.274;18.908;2023-07-20T10:50:00;97657.05;;;24.21;45.65
61898;BME280;47850;50.274;18.908;2023-07-20T10:52:39;97654.54;;;24.09;45.92
61898;BME280;47850;50.274;18.908;2023-07-20T10:55:14;97647.01;;;24.02;44.85
61898;BME280;47850;50.274;18.908;2023-07-20T10:57:42;97646.95;;;24.10;45.29
61898;BME280;47850;50.274;18.908;2023-07-20T11:00:13;97646.60;;;24.08;45.19
61898;BME280;47850;50.274;18.908;2023-07-20T11:02:58;97647.83;;;24.16;44.79
61898;BME280;47850;50.274;18.908;2023-07-20T11:05:37;97645.91;;;24.40;43.45
61898;BME280;47850;50.274;18.908;2023-07-20T11:08:11;97650.08;;;24.59;41.26
61898;BME280;47850;50.274;18.908;2023-07-20T11:10:39;97649.39;;;24.55;41.06
61898;BME280;47850;50.274;18.908;2023-07-20T11:13:21;97650.45;;;24.62;40.08
61898;BME280;47850;50.274;18.908;2023-07-20T11:18:28;97644.41;;;24.66;40.27
61898;BME280;47850;50.274;18.908;2023-07-20T11:20:56;97640.30;;;24.78;40.45
61898;BME280;47850;50.274;18.908;2023-07-20T11:23:24;97641.70;;;25.08;39.74
61898;BME280;47850;50.274;18.908;2023-07-20T11:25:52;97643.19;;;25.32;38.79
61898;BME280;47850;50.274;18.908;2023-07-20T11:28:20;97641.11;;;25.55;38.35
61898;BME280;47850;50.274;18.908;2023-07-20T11:30:52;97642.46;;;25.76;38.30
61898;BME280;47850;50.274;18.908;2023-07-20T11:33:21;97638.98;;;25.82;37.45
61898;BME280;47850;50.274;18.908;2023-07-20T11:35:49;97645.48;;;25.97;37.67
61898;BME280;47850;50.274;18.908;2023-07-20T11:38:18;97642.75;;;26.08;37.65
61898;BME280;47850;50.274;18.908;2023-07-20T11:40:46;97644.25;;;26.25;38.00
61898;BME280;47850;50.274;18.908;2023-07-20T11:43:14;97637.55;;;26.44;37.68
61898;BME280;47850;50.274;18.908;2023-07-20T11:45:43;97637.85;;;26.60;37.44
61898;BME280;47850;50.274;18.908;2023-07-20T11:48:15;97634.42;;;26.74;37.62
61898;BME280;47850;50.274;18.908;2023-07-20T11:50:44;97631.08;;;26.89;37.87
61898;BME280;47850;50.274;18.908;2023-07-20T11:53:12;97638.67;;;27.12;37.56
61898;BME280;47850;50.274;18.908;2023-07-20T11:55:42;97635.24;;;27.20;36.56
61898;BME280;47850;50.274;18.908;2023-07-20T11:58:10;97633.98;;;27.19;36.21
61898;BME280;47850;50.274;18.908;2023-07-20T12:00:38;97637.02;;;27.33;35.32
61898;BME280;47850;50.274;18.908;2023-07-20T12:03:09;97627.33;;;27.45;35.67
61898;BME280;47850;50.274;18.908;2023-07-20T12:05:38;97621.54;;;27.57;35.83
61898;BME280;47850;50.274;18.908;2023-07-20T12:08:06;97626.48;;;27.83;36.05
61898;BME280;47850;50.274;18.908;2023-07-20T12:10:39;97624.59;;;27.99;34.84
61898;BME280;47850;50.274;18.908;2023-07-20T12:13:10;97624.25;;;28.10;35.22
61898;BME280;47850;50.274;18.908;2023-07-20T12:15:39;97621.71;;;28.19;34.09
61898;BME280;47850;50.274;18.908;2023-07-20T12:18:07;97617.00;;;28.31;33.99
61898;BME280;47850;50.274;18.908;2023-07-20T12:20:36;97613.15;;;28.52;33.68
61898;BME280;47850;50.274;18.908;2023-07-20T12:23:09;97617.16;;;28.56;33.65
61898;BME280;47850;50.274;18.908;2023-07-20T12:28:10;97613.19;;;28.72;32.45
61898;BME280;47850;50.274;18.908;2023-07-20T12:30:39;97612.54;;;28.72;31.72
61898;BME280;47850;50.274;18.908;2023-07-20T12:33:08;97603.64;;;28.74;31.91
61898;BME280;47850;50.274;18.908;2023-07-20T12:35:36;97601.93;;;28.89;31.50
61898;BME280;47850;50.274;18.908;2023-07-20T12:38:04;97608.27;;;29.01;31.67
61898;BME280;47850;50.274;18.908;2023-07-20T12:40:33;97600.04;;;29.28;32.09
61898;BME280;47850;50.274;18.908;2023-07-20T12:43:01;97603.38;;;29.59;31.89
61898;BME280;47850;50.274;18.908;2023-07-20T12:45:28;97607.66;;;29.68;30.98
61898;BME280;47850;50.274;18.908;2023-07-20T12:47:56;97612.35;;;29.69;30.22
61898;BME280;47850;50.274;18.908;2023-07-20T12:50:24;97621.79;;;29.53;30.74
61898;BME280;47850;50.274;18.908;2023-07-20T12:52:52;97607.19;;;29.37;30.40
61898;BME280;47850;50.274;18.908;2023-07-20T12:55:20;97619.18;;;29.21;30.59
61898;BME280;47850;50.274;18.908;2023-07-20T12:57:48;97611.38;;;29.13;30.43
61898;BME280;47850;50.274;18.908;2023-07-20T13:00:16;97604.14;;;29.13;30.85
61898;BME280;47850;50.274;18.908;2023-07-20T13:02:44;97606.98;;;29.29;30.63
61898;BME280;47850;50.274;18.908;2023-07-20T13:05:12;97602.70;;;29.45;30.76
61898;BME280;47850;50.274;18.908;2023-07-20T13:07:41;97601.29;;;29.77;29.79
61898;BME280;47850;50.274;18.908;2023-07-20T13:10:10;97606.61;;;29.95;29.70
61898;BME280;47850;50.274;18.908;2023-07-20T13:12:38;97602.91;;;30.08;29.60